Big Bear Station Historical Data
Daily Summary for May 23, 2019 Units:  English    Metric   Both
Next Day »
Daily Weekly Monthly Yearly Custom
  High: Low: Average:
Temperature: 43.3 °F 31.8 °F 35.6 °F
Dew Point: 40.2 °F 31.4 °F 34.8 °F
Humidity: 99% 88% 97%
Wind Speed: 5.8mph 0mph 1mph
Wind Gust: -999mph - -
Wind- - WSW
Pressure: 23.44 in 23.23 in -
Precipitation: 0.32 in    
Historical Graphs
 
 
Tabular Data for May 23, 2019
Time Temperature Dew Point Pressure Wind Wind Speed Wind Gust Humidity Rainfall Rate (Hourly)
00:03 32.4 °F 31.4 °F 23.24 in Calm   -999 mph 96% 0.00 in
00:19 32.5 °F 31.5 °F 23.24 in Calm   -999 mph 96% 0.00 in
00:34 32.5 °F 31.5 °F 23.24 in Calm   -999 mph 96% 0.00 in
00:49 32.5 °F 31.5 °F 23.24 in Calm   -999 mph 96% 0.00 in
01:04 32.4 °F 31.6 °F 23.23 in Calm   -999 mph 97% 0.00 in
01:20 32.4 °F 31.6 °F 23.24 in West 2.2 mph -999 mph 97% 0.00 in
01:35 32.4 °F 31.9 °F 23.24 in NW 1.7 mph -999 mph 98% 0.00 in
01:51 32.4 °F 31.9 °F 23.24 in NNW 2.7 mph -999 mph 98% 0.00 in
02:06 32 °F 31.5 °F 23.24 in Calm   -999 mph 98% 0.00 in
02:21 32 °F 31.5 °F 23.24 in Calm   -999 mph 98% 0.00 in
02:36 32 °F 31.5 °F 23.24 in Calm   -999 mph 98% 0.00 in
02:51 32 °F 31.5 °F 23.24 in Calm   -999 mph 98% 0.00 in
03:07 32.2 °F 31.7 °F 23.24 in Calm   -999 mph 98% 0.00 in
03:22 32.4 °F 31.9 °F 23.24 in Calm   -999 mph 98% 0.00 in
03:37 32.4 °F 31.9 °F 23.24 in West 2.2 mph -999 mph 98% 0.00 in
03:52 32.2 °F 31.7 °F 23.24 in Calm   -999 mph 98% 0.00 in
04:07 32.2 °F 31.7 °F 23.24 in Calm   -999 mph 98% 0.00 in
04:23 32.4 °F 32.2 °F 23.24 in NNE 1.1 mph -999 mph 99% 0.00 in
04:38 32.2 °F 32 °F 23.24 in NNW 2.2 mph -999 mph 99% 0.00 in
04:53 32.2 °F 32 °F 23.25 in WNW 2.2 mph -999 mph 99% 0.00 in
05:08 32 °F 31.8 °F 23.25 in NNW 4.2 mph -999 mph 99% 0.00 in
05:24 31.8 °F 31.6 °F 23.25 in West 3.2 mph -999 mph 99% 0.00 in
05:39 32 °F 31.8 °F 23.25 in Calm   -999 mph 99% 0.00 in
05:54 32 °F 31.8 °F 23.26 in Calm   -999 mph 99% 0.00 in
06:09 32 °F 31.8 °F 23.27 in North 3.2 mph -999 mph 99% 0.00 in
06:24 32 °F 31.8 °F 23.27 in NW 5.3 mph -999 mph 99% 0.00 in
06:40 32 °F 31.8 °F 23.27 in NNW 2.7 mph -999 mph 99% 0.00 in
06:55 32.2 °F 32 °F 23.28 in Calm   -999 mph 99% 0.00 in
07:10 32.4 °F 32.2 °F 23.28 in Calm   -999 mph 99% 0.00 in
07:25 32.4 °F 32.2 °F 23.29 in Calm   -999 mph 99% 0.00 in
07:40 32.5 °F 32.3 °F 23.29 in Calm   -999 mph 99% 0.00 in
07:56 32.5 °F 32.3 °F 23.30 in Calm   -999 mph 99% 0.00 in
08:11 32.5 °F 32.3 °F 23.30 in Calm   -999 mph 99% 0.00 in
08:26 32.9 °F 32.6 °F 23.30 in Calm   -999 mph 99% 0.00 in
08:41 32.9 °F 32.6 °F 23.31 in NE 5.8 mph -999 mph 99% 0.00 in
08:56 32.9 °F 32.6 °F 23.32 in NNW 4.2 mph -999 mph 99% 0.00 in
09:12 33.3 °F 33 °F 23.32 in Calm   -999 mph 99% 0.00 in
09:27 33.3 °F 33 °F 23.33 in NW 1.1 mph -999 mph 99% 0.00 in
09:42 33.8 °F 33.5 °F 23.33 in ESE 1.7 mph -999 mph 99% 0.00 in
09:57 34 °F 33.7 °F 23.34 in SSW 1.1 mph -999 mph 99% 0.00 in
10:12 34.3 °F 34 °F 23.34 in Calm   -999 mph 99% 0.00 in
10:28 34.9 °F 34.6 °F 23.35 in Calm   -999 mph 99% 0.00 in
10:43 35.6 °F 35.3 °F 23.35 in SW 1.1 mph -999 mph 99% 0.00 in
10:58 36 °F 35.7 °F 23.36 in South 3.2 mph -999 mph 99% 0.00 in
11:13 36.7 °F 36.4 °F 23.36 in Calm   -999 mph 99% 0.00 in
11:29 36.3 °F 36 °F 23.37 in NW 3.2 mph -999 mph 99% 0.00 in
11:44 36.3 °F 36 °F 23.37 in SW 1.1 mph -999 mph 99% 0.00 in
11:59 36.3 °F 36 °F 23.37 in ENE 1.1 mph -999 mph 99% 0.00 in
12:14 36.9 °F 36.6 °F 23.37 in WNW 3.2 mph -999 mph 99% 0.00 in
12:29 36.7 °F 36.4 °F 23.38 in Calm   -999 mph 99% 0.00 in
12:45 37.2 °F 36.9 °F 23.38 in Calm   -999 mph 99% 0.00 in
13:00 38.1 °F 37.6 °F 23.38 in ENE 4.7 mph -999 mph 98% 0.00 in
13:16 38.5 °F 37.7 °F 23.38 in Calm   -999 mph 97% 0.00 in
13:31 38.8 °F 38 °F 23.38 in Calm   -999 mph 97% 0.00 in
13:46 39 °F 38 °F 23.39 in Calm   -999 mph 96% 0.00 in
14:01 38.5 °F 37.5 °F 23.39 in NW 2.7 mph -999 mph 96% 0.00 in
14:16 39.6 °F 38.3 °F 23.39 in Calm   -999 mph 95% 0.00 in
14:32 39.6 °F 38.3 °F 23.39 in NW 3.7 mph -999 mph 95% 0.00 in
14:47 40.1 °F 38.8 °F 23.39 in NW 2.7 mph -999 mph 95% 0.00 in
15:02 40.3 °F 38.7 °F 23.39 in West 2.7 mph -999 mph 94% 0.00 in
15:17 40.8 °F 39.5 °F 23.39 in NNW 2.2 mph -999 mph 95% 0.00 in
15:33 41.2 °F 39.6 °F 23.39 in ESE 2.2 mph -999 mph 94% 0.00 in
15:48 41.5 °F 39.6 °F 23.39 in WSW 2.7 mph -999 mph 93% 0.00 in
16:03 40.6 °F 39 °F 23.39 in Calm   -999 mph 94% 0.00 in
16:18 41.2 °F 39.9 °F 23.40 in NNW 3.2 mph -999 mph 95% 0.00 in
16:34 41.7 °F 39.5 °F 23.40 in NNW 4.7 mph -999 mph 92% 0.00 in
16:49 40.1 °F 38.2 °F 23.40 in Calm   -999 mph 93% 0.00 in
17:04 40.3 °F 38.7 °F 23.40 in NW 3.7 mph -999 mph 94% 0.00 in
17:19 40.3 °F 37.9 °F 23.40 in SSW 2.7 mph -999 mph 91% 0.00 in
17:34 41 °F 39.1 °F 23.40 in Calm   -999 mph 93% 0.00 in
17:50 43.2 °F 40.2 °F 23.40 in Calm   -999 mph 89% 0.00 in
18:05 41.7 °F 39.3 °F 23.40 in Calm   -999 mph 91% 0.00 in
18:20 43.3 °F 40 °F 23.40 in Calm   -999 mph 88% 0.00 in
18:36 42.8 °F 39.5 °F 23.40 in Calm   -999 mph 88% 0.00 in
18:51 42.6 °F 39.6 °F 23.40 in Calm   -999 mph 89% 0.00 in
19:06 40.1 °F 37.4 °F 23.40 in Calm   -999 mph 90% 0.00 in
19:22 38.7 °F 36.9 °F 23.40 in Calm   -999 mph 93% 0.00 in
19:37 37.8 °F 36.2 °F 23.40 in Calm   -999 mph 94% 0.00 in
19:52 37.2 °F 35.9 °F 23.40 in Calm   -999 mph 95% 0.00 in
20:07 36.5 °F 35.7 °F 23.41 in Calm   -999 mph 97% 0.00 in
20:22 36.3 °F 35.5 °F 23.41 in Calm   -999 mph 97% 0.00 in
20:38 36 °F 35.2 °F 23.41 in Calm   -999 mph 97% 0.00 in
20:53 35.8 °F 35.3 °F 23.42 in Calm   -999 mph 98% 0.00 in
21:08 35.2 °F 34.7 °F 23.42 in Calm   -999 mph 98% 0.00 in
21:23 34.7 °F 34.2 °F 23.42 in Calm   -999 mph 98% 0.00 in
21:38 34.3 °F 33.8 °F 23.42 in Calm   -999 mph 98% 0.00 in
21:54 34 °F 33.5 °F 23.43 in Calm   -999 mph 98% 0.00 in
22:09 34.3 °F 34 °F 23.43 in Calm   -999 mph 99% 0.00 in
22:24 34.7 °F 34.4 °F 23.43 in Calm   -999 mph 99% 0.00 in
22:39 34.7 °F 34.4 °F 23.43 in Calm   -999 mph 99% 0.00 in
22:54 34.9 °F 34.6 °F 23.43 in Calm   -999 mph 99% 0.00 in
23:10 34.7 °F 34.4 °F 23.43 in Calm   -999 mph 99% 0.00 in
23:25 34.2 °F 33.9 °F 23.43 in Calm   -999 mph 99% 0.00 in
23:40 33.3 °F 33 °F 23.44 in Calm   -999 mph 99% 0.00 in
23:55 32.5 °F 32.3 °F 23.43 in Calm   -999 mph 99% 0.00 in
Big Bear CA Weather